createdAt,value
2019-04-22T00:03:04.571Z,8.90
2019-04-22T00:08:33.832Z,9.00
2019-04-22T00:13:40.668Z,9.00
2019-04-22T00:18:56.367Z,8.90
2019-04-22T00:23:51.968Z,8.80
2019-04-22T00:29:08.132Z,8.60
2019-04-22T00:33:58.835Z,8.40
2019-04-22T00:39:15.074Z,8.40
2019-04-22T00:44:21.939Z,8.30
2019-04-22T00:54:31.099Z,8.50
2019-04-22T00:59:29.797Z,8.70
2019-04-22T01:04:48.900Z,8.70
2019-04-22T01:09:52.165Z,8.60
2019-04-22T01:14:53.871Z,8.60
2019-04-22T01:25:02.218Z,8.30
2019-04-22T01:30:03.720Z,8.10
2019-04-22T01:35:08.443Z,7.90
2019-04-22T01:40:31.776Z,7.80
2019-04-22T01:45:32.561Z,7.70
2019-04-22T01:50:37.319Z,7.70
2019-04-22T01:55:55.053Z,7.80
2019-04-22T02:00:58.189Z,7.80
2019-04-22T02:05:59.527Z,7.80
2019-04-22T02:11:07.935Z,7.70
2019-04-22T02:16:30.696Z,7.70
2019-04-22T02:21:13.881Z,7.40
2019-04-22T02:26:25.985Z,7.40
2019-04-22T02:31:35.908Z,7.20
2019-04-22T02:36:36.487Z,7.10
2019-04-22T02:47:04.527Z,6.90
2019-04-22T02:51:52.198Z,6.90
2019-04-22T02:57:04.398Z,6.80
2019-04-22T03:02:03.352Z,6.80
2019-04-22T03:07:10.850Z,6.60
2019-04-22T03:17:28.941Z,6.50
2019-04-22T03:22:36.534Z,6.50
2019-04-22T03:27:35.390Z,6.50
2019-04-22T03:43:08.477Z,6.70
2019-04-22T03:48:04.657Z,6.60
2019-04-22T03:58:01.135Z,6.40
2019-04-22T04:13:34.043Z,6.40
2019-04-22T04:18:47.300Z,6.30
2019-04-22T04:29:02.795Z,6.30
2019-04-22T04:39:07.470Z,6.40
2019-04-22T04:49:24.001Z,6.70
2019-04-22T05:04:51.105Z,8.50
2019-04-22T05:09:32.369Z,9.40
2019-04-22T05:14:48.908Z,10.80
2019-04-22T05:19:47.257Z,12.00
2019-04-22T05:25:01.374Z,13.10
2019-04-22T05:35:11.516Z,14.90
2019-04-22T05:40:16.710Z,15.50
2019-04-22T05:45:14.843Z,16.20
2019-04-22T05:50:18.733Z,16.80
2019-04-22T05:55:33.182Z,17.50
2019-04-22T06:01:05.627Z,18.10
2019-04-22T06:05:41.796Z,18.40
2019-04-22T06:10:53.396Z,18.90
2019-04-22T06:15:53.055Z,19.30
2019-04-22T06:21:09.106Z,19.60
2019-04-22T06:31:21.066Z,19.80
2019-04-22T06:36:24.451Z,20.20
2019-04-22T06:41:31.574Z,20.60
2019-04-22T06:46:35.101Z,21.20
2019-04-22T06:56:48.518Z,21.50
2019-04-22T07:01:57.587Z,21.60
2019-04-22T07:07:04.619Z,22.00
2019-04-22T07:12:09.724Z,22.30
2019-04-22T07:17:27.562Z,22.70
2019-04-22T07:27:25.755Z,23.00
2019-04-22T07:32:53.549Z,23.20
2019-04-22T07:37:38.824Z,23.60
2019-04-22T07:42:46.025Z,23.90
2019-04-22T07:47:52.139Z,24.30
2019-04-22T07:52:52.198Z,24.10
2019-04-22T07:58:02.062Z,24.00
2019-04-22T08:03:14.597Z,24.30
2019-04-22T08:08:20.066Z,24.30
2019-04-22T08:13:31.150Z,24.30
2019-04-22T08:18:34.030Z,24.60
2019-04-22T08:28:47.452Z,24.80
2019-04-22T08:34:01.758Z,25.00
2019-04-22T08:39:12.656Z,25.20
2019-04-22T08:44:28.004Z,25.50
2019-04-22T08:49:12.409Z,26.30
2019-04-22T08:54:25.971Z,26.60
2019-04-22T08:59:28.347Z,26.50
2019-04-22T09:04:48.031Z,26.40
2019-04-22T09:09:58.278Z,26.30
2019-04-22T09:15:01.115Z,26.80
2019-04-22T09:20:09.389Z,27.20
2019-04-22T09:25:10.338Z,26.80
2019-04-22T09:30:27.510Z,26.30
2019-04-22T09:35:37.546Z,25.70
2019-04-22T09:40:39.069Z,25.80
2019-04-22T09:45:51.146Z,25.90
2019-04-22T09:50:54.022Z,25.80
2019-04-22T09:56:03.903Z,25.30
2019-04-22T10:11:42.252Z,25.00
2019-04-22T10:16:45.557Z,24.90
2019-04-22T10:27:01.601Z,24.90
2019-04-22T10:32:06.944Z,24.70
2019-04-22T10:36:58.763Z,24.60
2019-04-22T10:41:59.097Z,24.70
2019-04-22T10:47:04.258Z,24.40
2019-04-22T10:52:10.822Z,24.60
2019-04-22T10:57:16.174Z,24.60
2019-04-22T11:02:21.488Z,24.50
2019-04-22T11:07:35.999Z,24.60
2019-04-22T11:12:35.527Z,24.80
2019-04-22T11:17:39.631Z,24.70
2019-04-22T11:22:44.674Z,24.50
2019-04-22T11:27:49.426Z,24.60
2019-04-22T11:32:58.286Z,24.70
2019-04-22T11:38:02.599Z,24.80
2019-04-22T11:43:08.029Z,24.70
2019-04-22T11:48:13.380Z,24.80
2019-04-22T11:53:18.651Z,24.60
2019-04-22T11:58:24.655Z,24.50
2019-04-22T12:03:31.635Z,24.20
2019-04-22T12:08:37.444Z,24.10
2019-04-22T12:13:57.938Z,23.90
2019-04-22T12:19:03.148Z,23.60
2019-04-22T12:24:09.108Z,23.10
2019-04-22T12:29:15.163Z,22.90
2019-04-22T12:34:19.741Z,22.80
2019-04-22T12:39:25.318Z,22.60
2019-04-22T12:44:30.770Z,22.60
2019-04-22T12:49:38.386Z,22.50
2019-04-22T12:54:42.603Z,22.50
2019-04-22T12:59:49.858Z,22.60
2019-04-22T13:04:56.188Z,22.50
2019-04-22T13:10:03.906Z,22.60
2019-04-22T13:15:11.803Z,22.50
2019-04-22T13:20:19.829Z,22.40
2019-04-22T13:25:29.969Z,22.40
2019-04-22T13:30:34.661Z,22.40
2019-04-22T13:35:39.436Z,22.40
2019-04-22T13:40:57.720Z,22.50
2019-04-22T13:45:51.930Z,22.50
2019-04-22T13:56:34.266Z,22.40
2019-04-22T14:01:18.613Z,22.30
2019-04-22T14:06:22.890Z,22.30
2019-04-22T14:11:36.685Z,22.30
2019-04-22T14:16:37.094Z,22.30
2019-04-22T14:21:44.345Z,22.30
2019-04-22T14:26:59.528Z,22.20
2019-04-22T14:32:05.557Z,22.20
2019-04-22T14:37:01.477Z,22.20
2019-04-22T14:42:33.457Z,22.20
2019-04-22T14:47:42.151Z,22.20
2019-04-22T14:52:45.928Z,22.10
2019-04-22T14:57:31.780Z,22.00
2019-04-22T15:02:37.787Z,21.90
2019-04-22T15:07:43.197Z,21.90
2019-04-22T15:13:05.318Z,21.90
2019-04-22T15:18:39.834Z,21.70
2019-04-22T15:23:44.602Z,21.60
2019-04-22T15:28:49.272Z,21.60
2019-04-22T15:33:56.339Z,21.50
2019-04-22T15:39:00.965Z,21.50
2019-04-22T15:44:05.963Z,21.30
2019-04-22T15:49:11.875Z,21.20
2019-04-22T15:54:16.214Z,21.10
2019-04-22T15:59:46.619Z,21.00
2019-04-22T16:04:30.933Z,20.90
2019-04-22T16:09:36.691Z,20.80
2019-04-22T16:14:51.333Z,20.70
2019-04-22T16:19:53.216Z,20.50
2019-04-22T16:25:17.629Z,20.40
2019-04-22T16:30:23.429Z,20.40
2019-04-22T16:35:28.738Z,20.20
2019-04-22T16:40:34.722Z,20.10
2019-04-22T16:45:39.982Z,19.90
2019-04-22T16:50:46.616Z,19.80
2019-04-22T16:55:57.154Z,19.60
2019-04-22T17:01:04.866Z,19.50
2019-04-22T17:06:23.354Z,19.40
2019-04-22T17:11:29.690Z,19.20
2019-04-22T17:16:34.505Z,19.10
2019-04-22T17:21:37.804Z,18.90
2019-04-22T17:26:42.392Z,18.70
2019-04-22T17:31:50.909Z,18.50
2019-04-22T17:36:53.220Z,18.20
2019-04-22T17:42:18.700Z,18.10
2019-04-22T17:47:36.676Z,18.00
2019-04-22T17:52:51.081Z,17.90
2019-04-22T17:57:59.528Z,17.70
2019-04-22T18:02:58.432Z,17.50
2019-04-22T18:08:16.995Z,17.40
2019-04-22T18:18:35.557Z,17.10
2019-04-22T18:23:24.455Z,16.90
2019-04-22T18:28:49.291Z,16.60
2019-04-22T18:33:47.877Z,16.50
2019-04-22T18:39:07.987Z,16.40
2019-04-22T18:44:06.280Z,16.30
2019-04-22T18:49:08.377Z,16.10
2019-04-22T18:54:36.685Z,16.00
2019-04-22T18:59:27.800Z,16.00
2019-04-22T19:04:37.935Z,15.80
2019-04-22T19:10:04.545Z,15.70
2019-04-22T19:15:13.918Z,15.60
2019-04-22T19:20:18.461Z,15.50
2019-04-22T19:25:11.968Z,15.40
2019-04-22T19:30:21.952Z,15.20
2019-04-22T19:35:26.902Z,15.00
2019-04-22T19:40:50.577Z,15.00
2019-04-22T19:45:50.627Z,14.80
2019-04-22T19:51:04.759Z,14.80
2019-04-22T19:55:53.769Z,14.80
2019-04-22T20:01:21.659Z,14.80
2019-04-22T20:06:33.685Z,14.80
2019-04-22T20:11:43.737Z,14.70
2019-04-22T20:16:46.542Z,14.60
2019-04-22T20:21:57.885Z,14.50
2019-04-22T20:27:03.058Z,14.40
2019-04-22T20:32:13.699Z,14.40
2019-04-22T20:37:28.282Z,14.30
2019-04-22T20:42:37.729Z,14.20
2019-04-22T20:47:26.441Z,14.00
2019-04-22T20:52:45.061Z,14.00
2019-04-22T20:57:48.065Z,14.00
2019-04-22T21:02:42.664Z,13.90
2019-04-22T21:08:05.302Z,13.80
2019-04-22T21:13:00.113Z,13.80
2019-04-22T21:18:08.257Z,13.70
2019-04-22T21:23:14.994Z,13.50
2019-04-22T21:28:30.849Z,13.40
2019-04-22T21:33:25.231Z,13.30
2019-04-22T21:38:37.599Z,13.10
2019-04-22T21:43:42.086Z,13.00
2019-04-22T21:48:57.745Z,12.90
2019-04-22T21:54:04.455Z,12.80
2019-04-22T21:59:07.968Z,12.70
2019-04-22T22:04:12.242Z,12.60
2019-04-22T22:09:20.489Z,12.50
2019-04-22T22:14:24.080Z,12.40
2019-04-22T22:19:32.712Z,12.40
2019-04-22T22:24:41.780Z,12.30
2019-04-22T22:34:50.324Z,12.10
2019-04-22T22:39:48.108Z,11.90
2019-04-22T22:44:48.370Z,11.90
2019-04-22T22:50:25.231Z,11.80
2019-04-22T22:55:28.885Z,11.70
2019-04-22T23:00:32.285Z,11.60
2019-04-22T23:05:45.579Z,11.60
2019-04-22T23:10:55.504Z,11.40
2019-04-22T23:15:48.165Z,11.30
2019-04-22T23:20:43.577Z,11.20
2019-04-22T23:26:18.807Z,11.20
2019-04-22T23:31:18.538Z,11.10
2019-04-22T23:36:27.872Z,11.00
2019-04-22T23:41:46.305Z,11.00
2019-04-22T23:46:59.885Z,10.90
2019-04-22T23:52:16.177Z,10.90
2019-04-22T23:57:20.743Z,10.80
